createdAt,value
2023-02-08T00:41:40.355Z,100824.52
2023-02-08T00:44:09.022Z,100828.73
2023-02-08T00:46:37.750Z,100833.57
2023-02-08T00:49:07.122Z,100835.73
2023-02-08T00:51:35.736Z,100832.16
2023-02-08T00:54:04.115Z,100833.52
2023-02-08T00:56:33.066Z,100836.73
2023-02-08T00:59:03.179Z,100837.23
2023-02-08T01:01:31.794Z,100842.66
2023-02-08T01:04:03.417Z,100842.23
2023-02-08T01:06:42.881Z,100841.44
2023-02-08T01:09:13.385Z,100841.20
2023-02-08T01:11:46.689Z,100842.09
2023-02-08T01:14:15.055Z,100846.05
2023-02-08T01:16:43.582Z,100854.30
2023-02-08T01:19:14.678Z,100862.78
2023-02-08T01:21:44.264Z,100862.43
2023-02-08T01:24:12.686Z,100860.71
2023-02-08T01:26:41.064Z,100865.75
2023-02-08T01:29:10.481Z,100873.50
2023-02-08T01:31:41.255Z,100870.23
2023-02-08T01:34:09.772Z,100872.84
2023-02-08T01:36:38.482Z,100876.90
2023-02-08T01:39:10.517Z,100880.61
2023-02-08T01:45:08.094Z,100877.21
2023-02-08T01:47:37.087Z,100881.41
2023-02-08T01:50:09.870Z,100878.34
2023-02-08T01:52:39.376Z,100885.71
2023-02-08T01:55:12.096Z,100891.95
2023-02-08T01:57:41.705Z,100886.20
2023-02-08T02:00:16.702Z,100894.23
2023-02-08T02:02:46.190Z,100900.80
2023-02-08T02:05:19.495Z,100903.95
2023-02-08T02:07:52.321Z,100908.27
2023-02-08T02:10:32.646Z,100913.95
2023-02-08T02:13:21.774Z,100919.59
2023-02-08T02:15:50.308Z,100923.05
2023-02-08T02:18:29.630Z,100924.88
2023-02-08T02:21:15.002Z,100926.36
2023-02-08T02:24:32.105Z,100928.10
2023-02-08T02:35:13.345Z,100931.94
2023-02-08T02:37:49.804Z,100934.07
2023-02-08T02:40:43.369Z,100937.25
2023-02-08T02:43:41.668Z,100951.63
2023-02-08T02:46:13.563Z,100955.16
2023-02-08T02:49:00.459Z,100961.65
2023-02-08T02:51:47.952Z,100966.52
2023-02-08T02:54:57.788Z,100970.31
2023-02-08T02:57:28.304Z,100974.90
2023-02-08T02:59:56.702Z,100976.59
2023-02-08T03:02:26.524Z,100983.27
2023-02-08T03:04:57.587Z,100989.65
2023-02-08T03:07:38.464Z,100995.42
2023-02-08T03:10:32.919Z,100997.34
2023-02-08T03:13:42.576Z,100998.14
2023-02-08T03:16:13.627Z,100998.18
2023-02-08T03:19:11.533Z,100999.43
2023-02-08T03:22:15.864Z,100999.96
2023-02-08T03:24:53.115Z,101004.64
2023-02-08T03:27:27.520Z,101008.24
2023-02-08T03:30:02.760Z,101015.75
2023-02-08T03:32:42.183Z,101020.98
2023-02-08T03:35:18.251Z,101022.07
2023-02-08T03:38:05.788Z,101024.10
2023-02-08T03:40:39.468Z,101024.85
2023-02-08T03:43:11.585Z,101029.33
2023-02-08T03:45:43.314Z,101033.70
2023-02-08T03:48:11.450Z,101034.14
2023-02-08T03:50:42.954Z,101035.69
2023-02-08T03:53:11.400Z,101042.45
2023-02-08T03:55:40.244Z,101049.05
2023-02-08T04:01:25.267Z,101059.19
2023-02-08T04:03:54.272Z,101058.53
2023-02-08T04:06:22.439Z,101061.21
2023-02-08T04:08:50.821Z,101064.19
2023-02-08T04:11:19.644Z,101067.86
2023-02-08T04:13:48.705Z,101068.70
2023-02-08T04:16:17.078Z,101072.72
2023-02-08T04:18:45.863Z,101075.35
2023-02-08T04:21:14.141Z,101078.83
2023-02-08T04:23:42.579Z,101085.23
2023-02-08T04:26:10.921Z,101089.80
2023-02-08T04:28:39.795Z,101090.67
2023-02-08T04:31:08.227Z,101089.27
2023-02-08T04:33:36.851Z,101091.29
2023-02-08T04:36:06.088Z,101091.00
2023-02-08T04:38:35.467Z,101092.83
2023-02-08T04:41:04.043Z,101098.59
2023-02-08T04:43:33.072Z,101101.17
2023-02-08T04:46:01.356Z,101100.33
2023-02-08T04:48:30.049Z,101105.96
2023-02-08T04:50:58.780Z,101110.54
2023-02-08T04:53:27.153Z,101114.14
2023-02-08T04:55:55.843Z,101117.64
2023-02-08T04:58:24.116Z,101117.15
2023-02-08T05:00:52.332Z,101120.41
2023-02-08T05:03:21.178Z,101120.71
2023-02-08T05:05:59.912Z,101116.90
2023-02-08T05:08:28.454Z,101120.60
2023-02-08T05:10:56.869Z,101124.77
2023-02-08T05:13:25.227Z,101125.77
2023-02-08T05:15:53.438Z,101128.11
2023-02-08T05:18:26.087Z,101131.78
2023-02-08T05:20:58.537Z,101129.11
2023-02-08T05:23:27.373Z,101128.79
2023-02-08T05:25:55.623Z,101136.00
2023-02-08T05:28:24.131Z,101136.92
2023-02-08T05:31:21.686Z,101139.53
2023-02-08T05:33:52.432Z,101140.77
2023-02-08T05:36:21.410Z,101145.19
2023-02-08T05:38:49.667Z,101149.98
2023-02-08T05:41:18.082Z,101152.88
2023-02-08T05:43:47.772Z,101149.21
2023-02-08T05:46:16.056Z,101156.63
2023-02-08T05:48:48.934Z,101162.55
2023-02-08T05:51:17.361Z,101168.95
2023-02-08T05:53:49.408Z,101173.18
2023-02-08T05:56:19.161Z,101172.70
2023-02-08T05:58:49.301Z,101178.41
2023-02-08T06:01:18.173Z,101173.38
2023-02-08T06:03:48.159Z,101179.70
2023-02-08T06:06:17.201Z,101183.31
2023-02-08T06:08:48.618Z,101181.27
2023-02-08T06:11:19.287Z,101181.85
2023-02-08T06:13:48.239Z,101194.77
2023-02-08T06:16:19.874Z,101196.85
2023-02-08T06:18:48.926Z,101193.91
2023-02-08T06:21:17.137Z,101195.11
2023-02-08T06:23:47.474Z,101200.85
2023-02-08T06:26:15.679Z,101200.93
2023-02-08T06:28:44.257Z,101200.89
2023-02-08T06:31:13.505Z,101200.97
2023-02-08T06:33:42.142Z,101201.77
2023-02-08T06:36:13.283Z,101199.74
2023-02-08T06:38:41.869Z,101206.15
2023-02-08T06:41:10.211Z,101204.12
2023-02-08T06:43:41.615Z,101206.90
2023-02-08T06:46:10.961Z,101212.40
2023-02-08T06:48:40.242Z,101210.10
2023-02-08T06:51:09.702Z,101208.23
2023-02-08T06:53:38.096Z,101214.84
2023-02-08T06:56:06.583Z,101216.83
2023-02-08T06:58:36.471Z,101220.77
2023-02-08T07:01:04.882Z,101225.90
2023-02-08T07:03:33.508Z,101231.48
2023-02-08T07:06:05.218Z,101232.33
2023-02-08T07:08:37.149Z,101230.13
2023-02-08T07:11:14.096Z,101232.16
2023-02-08T07:13:42.529Z,101225.90
2023-02-08T07:16:10.889Z,101223.70
2023-02-08T07:18:39.524Z,101226.70
2023-02-08T07:21:07.952Z,101226.69
2023-02-08T07:23:36.566Z,101228.36
2023-02-08T07:26:07.161Z,101228.48
2023-02-08T07:28:37.689Z,101225.91
2023-02-08T07:31:10.197Z,101224.87
2023-02-08T07:33:41.611Z,101223.84
2023-02-08T07:36:13.087Z,101232.05
2023-02-08T07:38:41.739Z,101233.80
2023-02-08T07:41:12.255Z,101235.71
2023-02-08T07:43:41.046Z,101233.69
2023-02-08T07:49:25.995Z,101237.34
2023-02-08T07:51:55.653Z,101244.52
2023-02-08T07:54:26.680Z,101251.95
2023-02-08T07:56:59.149Z,101255.45
2023-02-08T07:59:29.138Z,101257.83
2023-02-08T08:01:57.468Z,101259.08
2023-02-08T08:04:25.871Z,101257.04
2023-02-08T08:06:54.280Z,101257.27
2023-02-08T08:09:24.502Z,101263.54
2023-02-08T08:11:52.788Z,101270.15
2023-02-08T08:14:21.823Z,101280.70
2023-02-08T08:16:50.410Z,101282.76
2023-02-08T08:19:20.024Z,101281.16
2023-02-08T08:21:50.031Z,101281.52
2023-02-08T08:24:18.756Z,101280.30
2023-02-08T08:26:47.219Z,101280.45
2023-02-08T08:29:16.290Z,101285.39
2023-02-08T08:31:45.883Z,101284.38
2023-02-08T08:34:14.588Z,101286.30
2023-02-08T08:36:43.677Z,101292.45
2023-02-08T08:39:12.158Z,101297.90
2023-02-08T08:41:43.967Z,101303.64
2023-02-08T08:44:30.521Z,101299.84
2023-02-08T08:46:59.512Z,101297.80
2023-02-08T08:49:28.282Z,101305.02
2023-02-08T08:54:43.275Z,101312.36
2023-02-08T08:57:11.584Z,101314.36
2023-02-08T08:59:40.703Z,101311.09
2023-02-08T09:02:35.794Z,101311.15
2023-02-08T09:05:08.153Z,101311.26
2023-02-08T09:07:39.701Z,101312.96
2023-02-08T09:10:19.009Z,101315.60
2023-02-08T09:13:08.791Z,101313.70
2023-02-08T09:16:00.977Z,101313.05
2023-02-08T09:18:29.690Z,101313.04
2023-02-08T09:20:58.722Z,101317.41
2023-02-08T09:23:50.031Z,101312.20
2023-02-08T09:26:19.666Z,101314.02
2023-02-08T09:28:47.995Z,101308.37
2023-02-08T09:31:27.938Z,101304.88
2023-02-08T09:33:59.894Z,101307.05
2023-02-08T09:36:38.849Z,101303.58
2023-02-08T09:39:19.024Z,101298.44
2023-02-08T09:45:00.678Z,101303.26
2023-02-08T09:47:36.815Z,101308.48
2023-02-08T09:50:10.583Z,101310.19
2023-02-08T09:52:44.945Z,101313.69
2023-02-08T09:55:18.269Z,101312.85
2023-02-08T09:58:19.845Z,101306.30
2023-02-08T10:00:53.405Z,101303.51
2023-02-08T10:03:24.297Z,101303.36
2023-02-08T10:05:52.986Z,101305.26
2023-02-08T10:08:34.554Z,101299.86
2023-02-08T10:11:26.542Z,101299.98
2023-02-08T10:14:37.457Z,101298.84
2023-02-08T10:17:42.091Z,101303.42
2023-02-08T10:20:53.738Z,101303.92
2023-02-08T10:23:41.470Z,101308.40
2023-02-08T10:26:25.216Z,101311.17
2023-02-08T10:29:16.874Z,101310.59
2023-02-08T10:32:13.627Z,101307.11
2023-02-08T10:34:52.922Z,101308.38
2023-02-08T10:37:43.726Z,101311.65
2023-02-08T10:40:28.976Z,101309.13
2023-02-08T10:43:11.835Z,101302.31
2023-02-08T10:46:00.707Z,101296.14
2023-02-08T10:49:02.059Z,101284.31
2023-02-08T10:51:30.928Z,101283.27
2023-02-08T10:53:59.296Z,101281.19
2023-02-08T10:57:21.310Z,101281.14
2023-02-08T11:00:15.456Z,101278.55
2023-02-08T11:02:44.224Z,101274.27
2023-02-08T11:05:42.845Z,101274.06
2023-02-08T11:08:22.616Z,101267.27
2023-02-08T11:11:04.987Z,101264.41
2023-02-08T11:13:43.423Z,101259.86
2023-02-08T11:16:20.019Z,101257.20
2023-02-08T11:18:52.666Z,101255.40
2023-02-08T11:21:39.470Z,101254.08
2023-02-08T11:24:19.903Z,101251.36
2023-02-08T11:26:49.156Z,101249.04
2023-02-08T11:29:29.009Z,101247.44
2023-02-08T11:32:04.844Z,101245.31
2023-02-08T11:34:39.114Z,101245.98
2023-02-08T11:37:33.277Z,101249.63
2023-02-08T11:40:01.680Z,101250.19
2023-02-08T11:42:46.740Z,101253.63
2023-02-08T11:45:46.310Z,101253.51
2023-02-08T11:48:50.231Z,101255.27
2023-02-08T11:54:55.333Z,101250.48
2023-02-08T11:57:25.950Z,101247.91
2023-02-08T12:00:38.047Z,101244.19
2023-02-08T12:03:38.045Z,101235.59
2023-02-08T12:06:50.277Z,101234.33
2023-02-08T12:09:39.184Z,101237.45
2023-02-08T12:12:20.114Z,101236.64
2023-02-08T12:15:40.193Z,101238.01
2023-02-08T12:18:39.628Z,101233.75
2023-02-08T12:21:19.019Z,101232.48
2023-02-08T12:23:54.181Z,101237.63
2023-02-08T12:26:38.831Z,101236.62
2023-02-08T12:29:21.998Z,101239.31
2023-02-08T12:32:05.515Z,101239.83
2023-02-08T12:34:59.788Z,101239.00
2023-02-08T12:38:25.627Z,101241.10
2023-02-08T12:41:21.950Z,101233.96
2023-02-08T12:44:21.261Z,101237.73
2023-02-08T12:47:25.132Z,101236.73
2023-02-08T12:50:32.258Z,101241.54
2023-02-08T12:53:31.174Z,101243.23
2023-02-08T12:56:07.426Z,101242.90
2023-02-08T12:58:44.148Z,101242.84
2023-02-08T13:01:38.686Z,101244.16
2023-02-08T13:04:15.225Z,101240.69
2023-02-08T13:06:53.739Z,101242.10
2023-02-08T13:10:20.652Z,101247.24
2023-02-08T13:12:53.313Z,101247.44
2023-02-08T13:15:31.035Z,101245.42
2023-02-08T13:18:22.363Z,101241.66
2023-02-08T13:20:58.762Z,101243.71
2023-02-08T13:23:50.657Z,101241.23
2023-02-08T13:29:26.112Z,101243.69
2023-02-08T13:32:43.568Z,101247.10
2023-02-08T13:35:22.096Z,101252.09
2023-02-08T13:37:59.372Z,101253.86
2023-02-08T13:40:35.654Z,101252.60
2023-02-08T13:43:34.076Z,101255.10
2023-02-08T13:46:06.724Z,101254.33
2023-02-08T13:49:02.647Z,101248.84
2023-02-08T13:51:31.708Z,101245.64
2023-02-08T13:54:01.261Z,101248.71
2023-02-08T13:57:07.422Z,101249.23
2023-02-08T13:59:50.022Z,101246.97
2023-02-08T14:02:27.876Z,101241.80
2023-02-08T14:05:00.465Z,101238.02
2023-02-08T14:07:45.038Z,101233.09
2023-02-08T14:10:25.192Z,101231.38
2023-02-08T14:13:03.974Z,101228.39
2023-02-08T14:15:39.330Z,101223.50
2023-02-08T14:18:20.662Z,101219.54
2023-02-08T14:21:04.308Z,101223.38
2023-02-08T14:23:38.296Z,101226.20
2023-02-08T14:26:09.873Z,101225.27
2023-02-08T14:31:40.978Z,101222.52
2023-02-08T14:34:22.641Z,101221.09
2023-02-08T14:37:00.404Z,101219.21
2023-02-08T14:39:34.801Z,101225.41
2023-02-08T14:44:58.724Z,101224.85
2023-02-08T14:47:28.558Z,101227.45
2023-02-08T14:50:15.257Z,101225.34
2023-02-08T14:53:07.210Z,101226.13
2023-02-08T14:55:46.223Z,101227.67
2023-02-08T14:58:31.910Z,101225.60
2023-02-08T15:01:13.650Z,101226.29
2023-02-08T15:03:45.063Z,101230.97
2023-02-08T15:06:28.428Z,101230.13
2023-02-08T15:08:57.231Z,101231.50
2023-02-08T15:11:33.880Z,101232.95
2023-02-08T15:14:03.033Z,101234.45
2023-02-08T15:16:42.239Z,101237.39
2023-02-08T15:19:21.015Z,101235.41
2023-02-08T15:21:51.832Z,101235.62
2023-02-08T15:24:24.768Z,101234.58
2023-02-08T15:26:56.840Z,101241.72
2023-02-08T15:29:39.185Z,101245.65
2023-02-08T15:32:13.589Z,101247.30
2023-02-08T15:37:33.727Z,101251.00
2023-02-08T15:40:03.168Z,101249.98
2023-02-08T15:42:33.750Z,101249.16
2023-02-08T15:45:04.648Z,101248.88
2023-02-08T15:47:36.084Z,101248.73
2023-02-08T15:53:06.157Z,101247.86
2023-02-08T15:55:38.023Z,101247.32
2023-02-08T15:58:08.808Z,101246.74
2023-02-08T16:00:37.653Z,101244.88
2023-02-08T16:03:24.291Z,101249.30
2023-02-08T16:05:57.653Z,101249.29
2023-02-08T16:08:34.310Z,101251.11
2023-02-08T16:11:22.629Z,101244.10
2023-02-08T16:13:54.038Z,101243.13
2023-02-08T16:16:27.038Z,101241.93
2023-02-08T16:19:01.919Z,101243.76
2023-02-08T16:21:47.730Z,101250.02
2023-02-08T16:24:16.312Z,101250.23
2023-02-08T16:26:54.692Z,101251.40
2023-02-08T16:29:28.908Z,101249.48
2023-02-08T16:32:13.755Z,101252.27
2023-02-08T16:34:42.541Z,101255.77
2023-02-08T16:37:30.917Z,101251.98
2023-02-08T16:39:59.936Z,101257.51
2023-02-08T16:42:34.010Z,101257.98
2023-02-08T16:45:09.016Z,101255.39
2023-02-08T16:47:48.576Z,101257.48
2023-02-08T16:50:24.510Z,101255.55
2023-02-08T16:53:03.190Z,101254.91
2023-02-08T16:55:32.550Z,101252.73
2023-02-08T16:58:02.116Z,101254.20
2023-02-08T17:00:34.971Z,101254.63
2023-02-08T17:03:03.229Z,101251.27
2023-02-08T17:05:35.445Z,101253.88
2023-02-08T17:08:07.390Z,101249.13
2023-02-08T17:10:36.053Z,101249.71
2023-02-08T17:13:19.413Z,101247.59
2023-02-08T17:16:06.044Z,101245.66
2023-02-08T17:18:35.062Z,101243.92
2023-02-08T17:21:07.903Z,101240.71
2023-02-08T17:23:39.781Z,101241.16
2023-02-08T17:26:28.204Z,101239.14
2023-02-08T17:28:57.322Z,101236.71
2023-02-08T17:31:26.854Z,101231.83
2023-02-08T17:33:55.721Z,101232.72
2023-02-08T17:36:24.143Z,101232.59
2023-02-08T17:38:52.887Z,101234.85
2023-02-08T17:41:21.197Z,101236.61
2023-02-08T17:43:53.628Z,101236.04
2023-02-08T17:46:26.957Z,101237.04
2023-02-08T17:49:01.585Z,101238.08
2023-02-08T17:51:30.701Z,101239.81
2023-02-08T17:54:17.170Z,101239.81
2023-02-08T17:56:45.833Z,101236.80
2023-02-08T17:59:14.054Z,101240.17
2023-02-08T18:01:44.643Z,101237.87
2023-02-08T18:04:13.553Z,101236.30
2023-02-08T18:06:42.138Z,101235.30
2023-02-08T18:09:10.278Z,101234.83
2023-02-08T18:11:39.275Z,101238.13
2023-02-08T18:14:08.788Z,101238.78
2023-02-08T18:16:41.248Z,101236.36
2023-02-08T18:19:26.735Z,101237.17
2023-02-08T18:21:55.479Z,101238.51
2023-02-08T18:24:24.237Z,101235.65
2023-02-08T18:26:52.338Z,101242.33
2023-02-08T18:29:21.281Z,101243.52
2023-02-08T18:31:50.226Z,101244.13
2023-02-08T18:34:18.967Z,101245.02
2023-02-08T18:36:47.737Z,101245.42
2023-02-08T18:39:18.949Z,101247.23
2023-02-08T18:41:47.185Z,101246.52
2023-02-08T18:44:15.728Z,101242.50
2023-02-08T18:46:49.798Z,101244.50
2023-02-08T18:49:18.729Z,101245.58
2023-02-08T18:51:47.311Z,101240.71
2023-02-08T18:54:16.444Z,101239.26
2023-02-08T18:56:46.015Z,101243.23
2023-02-08T18:59:14.396Z,101240.31
2023-02-08T19:01:43.241Z,101243.19
2023-02-08T19:04:12.068Z,101238.11
2023-02-08T19:06:40.582Z,101236.43
2023-02-08T19:09:09.347Z,101237.20
2023-02-08T19:11:39.208Z,101235.95
2023-02-08T19:14:10.360Z,101237.84
2023-02-08T19:16:39.422Z,101241.35
2023-02-08T19:19:09.198Z,101240.81
2023-02-08T19:21:38.297Z,101245.39
2023-02-08T19:24:06.909Z,101245.43
2023-02-08T19:26:40.020Z,101246.44
2023-02-08T19:29:11.317Z,101249.95
2023-02-08T19:31:40.705Z,101249.80
2023-02-08T19:34:26.599Z,101255.58
2023-02-08T19:36:55.299Z,101253.48
2023-02-08T19:39:25.463Z,101255.66
2023-02-08T19:41:55.525Z,101253.13
2023-02-08T19:44:24.100Z,101249.77
2023-02-08T19:46:53.724Z,101249.82
2023-02-08T19:49:23.950Z,101253.58
2023-02-08T19:52:09.830Z,101252.39
2023-02-08T19:54:55.620Z,101252.52
2023-02-08T19:57:25.806Z,101253.19
2023-02-08T19:59:54.731Z,101252.46
2023-02-08T20:02:25.106Z,101253.05
2023-02-08T20:07:39.740Z,101258.57
2023-02-08T20:10:08.927Z,101259.52
2023-02-08T20:12:40.305Z,101254.23
2023-02-08T20:15:11.528Z,101252.84
2023-02-08T20:17:41.429Z,101247.34
2023-02-08T20:20:10.733Z,101247.50
2023-02-08T20:22:38.953Z,101245.61
2023-02-08T20:25:10.056Z,101240.63
2023-02-08T20:27:39.658Z,101239.51
2023-02-08T20:30:08.979Z,101241.98
2023-02-08T20:32:47.985Z,101242.80
2023-02-08T20:35:16.361Z,101239.77
2023-02-08T20:37:45.603Z,101242.84
2023-02-08T20:40:32.844Z,101242.07
2023-02-08T20:43:01.310Z,101240.29
2023-02-08T20:45:29.743Z,101236.86
2023-02-08T20:47:58.134Z,101236.68
2023-02-08T20:50:31.243Z,101237.16
2023-02-08T20:52:59.879Z,101239.34
2023-02-08T20:55:28.785Z,101236.36
2023-02-08T20:57:57.092Z,101238.34
2023-02-08T21:00:33.474Z,101233.81
2023-02-08T21:03:09.070Z,101232.65
2023-02-08T21:08:26.610Z,101229.34
2023-02-08T21:10:54.891Z,101234.02
2023-02-08T21:13:42.056Z,101233.09
2023-02-08T21:16:10.504Z,101225.95
2023-02-08T21:18:39.585Z,101222.06
2023-02-08T21:21:08.296Z,101218.61
2023-02-08T21:23:38.288Z,101216.46
2023-02-08T21:26:07.993Z,101214.96
2023-02-08T21:28:36.685Z,101214.17
2023-02-08T21:31:11.250Z,101218.81
2023-02-08T21:33:41.316Z,101220.48
2023-02-08T21:36:12.268Z,101227.87
2023-02-08T21:38:43.721Z,101230.48
2023-02-08T21:41:17.037Z,101230.55
2023-02-08T21:43:49.122Z,101232.44
2023-02-08T21:46:18.224Z,101231.44
2023-02-08T21:49:05.495Z,101234.31
2023-02-08T21:52:10.028Z,101238.80
2023-02-08T21:54:41.738Z,101237.37
2023-02-08T21:57:17.998Z,101234.00
2023-02-08T21:59:47.560Z,101226.58
2023-02-08T22:02:25.795Z,101227.71
2023-02-08T22:05:15.221Z,101226.30
2023-02-08T22:07:47.687Z,101224.66
2023-02-08T22:10:17.857Z,101219.83
2023-02-08T22:12:47.573Z,101215.41
2023-02-08T22:15:17.730Z,101215.63
2023-02-08T22:17:46.562Z,101213.30
2023-02-08T22:20:15.317Z,101211.02
2023-02-08T22:22:43.584Z,101212.95
2023-02-08T22:25:13.011Z,101212.66
2023-02-08T22:27:41.574Z,101214.10
2023-02-08T22:30:12.519Z,101202.62
2023-02-08T22:32:46.684Z,101198.54
2023-02-08T22:35:15.533Z,101201.89
2023-02-08T22:37:44.366Z,101197.11
2023-02-08T22:40:13.013Z,101196.94
2023-02-08T22:42:42.394Z,101194.20
2023-02-08T22:45:10.717Z,101189.48
2023-02-08T22:47:39.683Z,101186.91
2023-02-08T22:50:09.551Z,101183.91
2023-02-08T22:52:37.986Z,101182.31
2023-02-08T22:55:06.532Z,101182.16
2023-02-08T22:57:35.530Z,101182.39
2023-02-08T23:00:06.471Z,101173.47
2023-02-08T23:02:35.386Z,101177.63
2023-02-08T23:05:04.252Z,101180.04
2023-02-08T23:07:33.050Z,101177.60
2023-02-08T23:10:05.991Z,101176.10
2023-02-08T23:12:35.018Z,101183.45
2023-02-08T23:15:03.396Z,101180.55
2023-02-08T23:17:32.036Z,101179.52
2023-02-08T23:20:00.209Z,101176.67
2023-02-08T23:22:28.813Z,101171.55
2023-02-08T23:24:57.051Z,101165.14
2023-02-08T23:27:25.527Z,101160.59
2023-02-08T23:29:53.820Z,101164.00
2023-02-08T23:32:22.243Z,101161.38
